createdAt,value
2018-04-01T00:01:24.276Z,4.10
2018-04-01T00:03:53.177Z,4.20
2018-04-01T00:06:21.673Z,4.20
2018-04-01T00:08:50.661Z,4.30
2018-04-01T00:11:20.412Z,4.10
2018-04-01T00:13:48.952Z,4.10
2018-04-01T00:16:17.637Z,4.10
2018-04-01T00:18:46.446Z,4.20
2018-04-01T00:21:15.827Z,4.20
2018-04-01T00:23:44.310Z,4.20
2018-04-01T00:26:13.291Z,4.20
2018-04-01T00:28:41.834Z,4.30
2018-04-01T00:31:11.420Z,4.30
2018-04-01T00:33:39.936Z,4.30
2018-04-01T00:36:09.142Z,4.30
2018-04-01T00:38:37.782Z,4.30
2018-04-01T00:41:06.437Z,4.30
2018-04-01T00:43:35.176Z,4.30
2018-04-01T00:46:04.418Z,4.30
2018-04-01T00:48:33.479Z,4.30
2018-04-01T00:51:02.088Z,4.30
2018-04-01T00:53:30.763Z,4.30
2018-04-01T00:55:59.801Z,4.30
2018-04-01T00:58:28.451Z,4.30
2018-04-01T01:00:57.417Z,4.30
2018-04-01T01:03:25.946Z,4.30
2018-04-01T01:05:55.579Z,4.20
2018-04-01T01:08:24.322Z,4.10
2018-04-01T01:10:53.044Z,4.10
2018-04-01T01:13:22.031Z,4.10
2018-04-01T01:15:51.471Z,4.00
2018-04-01T01:18:20.174Z,4.00
2018-04-01T01:20:49.258Z,4.00
2018-04-01T01:23:18.180Z,3.90
2018-04-01T01:25:46.890Z,3.90
2018-04-01T01:28:15.720Z,4.00
2018-04-01T01:30:45.330Z,4.00
2018-04-01T01:33:13.967Z,4.00
2018-04-01T01:35:42.666Z,4.00
2018-04-01T01:38:11.693Z,3.90
2018-04-01T01:40:40.214Z,3.90
2018-04-01T01:43:09.018Z,3.80
2018-04-01T01:45:38.427Z,3.80
2018-04-01T01:48:07.474Z,3.80
2018-04-01T01:50:36.789Z,3.90
2018-04-01T01:53:06.353Z,3.90
2018-04-01T01:55:35.175Z,3.90
2018-04-01T01:58:05.221Z,4.00
2018-04-01T02:00:35.124Z,4.00
2018-04-01T02:03:03.909Z,4.00
2018-04-01T02:05:32.829Z,4.00
2018-04-01T02:08:02.864Z,4.00
2018-04-01T02:10:32.081Z,4.00
2018-04-01T02:13:00.973Z,4.00
2018-04-01T02:15:29.664Z,4.00
2018-04-01T02:17:58.350Z,4.10
2018-04-01T02:20:27.003Z,4.00
2018-04-01T02:22:55.961Z,3.90
2018-04-01T02:25:24.464Z,3.80
2018-04-01T02:27:53.064Z,3.80
2018-04-01T02:30:22.385Z,3.80
2018-04-01T02:32:51.658Z,3.80
2018-04-01T02:35:20.998Z,3.80
2018-04-01T02:37:50.510Z,3.70
2018-04-01T02:40:19.041Z,3.70
2018-04-01T02:42:47.651Z,3.70
2018-04-01T02:45:16.767Z,3.70
2018-04-01T02:47:46.073Z,3.70
2018-04-01T02:50:14.555Z,3.70
2018-04-01T02:52:43.238Z,3.60
2018-04-01T02:55:11.784Z,3.60
2018-04-01T03:11:11.048Z,3.80
2018-04-01T03:13:40.836Z,3.80
2018-04-01T03:16:09.402Z,3.60
2018-04-01T03:18:38.031Z,3.50
2018-04-01T03:21:08.184Z,3.50
2018-04-01T03:23:36.834Z,3.50
2018-04-01T03:26:06.002Z,3.60
2018-04-01T03:28:34.690Z,3.60
2018-04-01T03:31:03.585Z,3.70
2018-04-01T03:33:32.213Z,3.50
2018-04-01T03:36:01.126Z,3.50
2018-04-01T03:38:29.832Z,3.50
2018-04-01T03:40:58.493Z,3.40
2018-04-01T03:43:27.416Z,3.40
2018-04-01T03:45:56.523Z,3.30
2018-04-01T03:48:25.210Z,3.30
2018-04-01T03:50:53.743Z,3.30
2018-04-01T03:53:22.594Z,3.40
2018-04-01T03:55:51.576Z,3.40
2018-04-01T03:58:20.229Z,3.40
2018-04-01T04:00:55.710Z,3.40
2018-04-01T04:03:24.740Z,3.40
2018-04-01T04:05:53.663Z,3.40
2018-04-01T04:08:22.948Z,3.50
2018-04-01T04:10:51.893Z,3.40
2018-04-01T04:13:20.546Z,3.50
2018-04-01T04:15:49.262Z,3.40
2018-04-01T04:18:17.979Z,3.50
2018-04-01T04:20:46.702Z,3.50
2018-04-01T04:23:17.183Z,3.40
2018-04-01T04:25:49.746Z,3.40
2018-04-01T04:28:24.887Z,3.40
2018-04-01T04:30:59.792Z,3.40
2018-04-01T04:33:30.091Z,3.30
2018-04-01T04:35:58.628Z,3.30
2018-04-01T04:38:27.413Z,3.40
2018-04-01T04:40:56.767Z,3.50
2018-04-01T04:43:25.398Z,3.40
2018-04-01T04:45:55.030Z,3.30
2018-04-01T04:48:24.085Z,3.30
2018-04-01T04:50:52.612Z,3.30
2018-04-01T04:53:21.256Z,3.20
2018-04-01T04:55:50.285Z,3.20
2018-04-01T04:58:19.206Z,3.20
2018-04-01T05:00:48.466Z,3.20
2018-04-01T05:03:17.821Z,3.10
2018-04-01T05:05:46.354Z,3.10
2018-04-01T05:08:15.198Z,3.10
2018-04-01T05:10:43.763Z,3.00
2018-04-01T05:13:12.677Z,3.00
2018-04-01T05:15:41.336Z,3.00
2018-04-01T05:18:10.428Z,3.00
2018-04-01T05:20:39.139Z,3.00
2018-04-01T05:23:08.099Z,3.00
2018-04-01T05:25:36.869Z,3.00
2018-04-01T05:28:07.382Z,3.00
2018-04-01T05:30:37.248Z,2.90
2018-04-01T05:33:05.981Z,2.90
2018-04-01T05:35:34.949Z,2.90
2018-04-01T05:38:03.768Z,3.00
2018-04-01T05:40:32.683Z,3.00
2018-04-01T05:43:01.945Z,3.00
2018-04-01T05:45:31.022Z,3.10
2018-04-01T05:48:01.050Z,3.10
2018-04-01T05:50:30.489Z,3.10
2018-04-01T05:52:59.540Z,3.10
2018-04-01T05:55:28.615Z,3.10
2018-04-01T05:57:57.800Z,3.00
2018-04-01T06:00:27.590Z,3.10
2018-04-01T06:02:56.238Z,3.10
2018-04-01T06:05:25.066Z,3.00
2018-04-01T06:07:55.247Z,3.00
2018-04-01T06:10:24.379Z,3.00
2018-04-01T06:12:58.441Z,3.00
2018-04-01T06:15:28.216Z,3.00
2018-04-01T06:17:57.262Z,3.00
2018-04-01T06:20:27.753Z,2.90
2018-04-01T06:29:42.104Z,3.00
2018-04-01T06:32:12.694Z,3.10
2018-04-01T06:34:41.786Z,3.10
2018-04-01T06:37:10.722Z,3.10
2018-04-01T06:39:40.893Z,3.20
2018-04-01T06:42:10.630Z,3.20
2018-04-01T06:44:39.215Z,3.20
2018-04-01T06:47:08.263Z,3.30
2018-04-01T06:49:37.430Z,3.30
2018-04-01T06:52:06.462Z,3.40
2018-04-01T06:54:35.215Z,3.40
2018-04-01T06:57:03.834Z,3.30
2018-04-01T06:59:32.709Z,3.30
2018-04-01T07:02:01.437Z,3.30
2018-04-01T07:04:30.610Z,3.40
2018-04-01T07:06:59.430Z,3.40
2018-04-01T07:09:28.229Z,3.50
2018-04-01T07:11:57.248Z,3.50
2018-04-01T07:14:26.189Z,3.50
2018-04-01T07:16:54.962Z,3.50
2018-04-01T07:19:23.912Z,3.50
2018-04-01T07:21:53.185Z,3.50
2018-04-01T07:24:23.003Z,3.40
2018-04-01T07:26:51.771Z,3.40
2018-04-01T07:29:20.658Z,3.50
2018-04-01T07:31:49.796Z,3.60
2018-04-01T07:34:18.906Z,3.50
2018-04-01T07:36:48.329Z,3.40
2018-04-01T07:39:17.360Z,3.40
2018-04-01T07:41:46.351Z,3.50
2018-04-01T07:44:15.069Z,3.50
2018-04-01T07:46:44.250Z,3.60
2018-04-01T07:49:13.985Z,3.70
2018-04-01T07:51:42.760Z,3.70
2018-04-01T07:54:11.474Z,3.70
2018-04-01T07:56:40.571Z,3.70
2018-04-01T07:59:09.326Z,3.70
2018-04-01T08:01:38.482Z,3.60
2018-04-01T08:04:07.722Z,3.50
2018-04-01T08:09:11.971Z,3.50
2018-04-01T08:11:41.106Z,3.70
2018-04-01T08:14:10.013Z,3.80
2018-04-01T08:16:38.847Z,3.90
2018-04-01T08:19:07.794Z,3.90
2018-04-01T08:21:36.899Z,4.00
2018-04-01T08:24:06.726Z,4.10
2018-04-01T08:26:35.870Z,4.00
2018-04-01T08:29:04.843Z,3.90
2018-04-01T08:31:34.534Z,3.80
2018-04-01T08:34:03.478Z,3.80
2018-04-01T08:36:32.624Z,3.60
2018-04-01T08:39:01.648Z,3.80
2018-04-01T08:41:30.243Z,3.80
2018-04-01T08:43:59.250Z,3.80
2018-04-01T08:46:28.161Z,4.00
2018-04-01T08:48:57.093Z,4.00
2018-04-01T08:51:25.747Z,4.10
2018-04-01T08:53:55.240Z,4.20
2018-04-01T08:56:23.833Z,4.30
2018-04-01T08:58:53.515Z,4.40
2018-04-01T09:01:22.156Z,4.40
2018-04-01T09:03:50.783Z,4.60
2018-04-01T09:06:20.441Z,4.70
2018-04-01T09:08:49.022Z,4.60
2018-04-01T09:11:18.133Z,4.70
2018-04-01T09:13:47.787Z,4.80
2018-04-01T09:16:16.505Z,4.80
2018-04-01T09:18:45.189Z,4.80
2018-04-01T09:21:15.966Z,5.00
2018-04-01T09:23:44.917Z,5.00
2018-04-01T09:26:13.873Z,5.10
2018-04-01T09:28:49.989Z,5.10
2018-04-01T09:31:20.780Z,5.00
2018-04-01T09:33:49.742Z,5.00
2018-04-01T09:36:19.094Z,5.00
2018-04-01T09:38:47.995Z,5.10
2018-04-01T09:41:17.451Z,4.80
2018-04-01T09:43:46.196Z,4.70
2018-04-01T09:46:15.287Z,4.90
2018-04-01T09:48:44.869Z,5.00
2018-04-01T09:51:13.412Z,5.20
2018-04-01T09:53:42.017Z,5.50
2018-04-01T09:56:11.037Z,5.60
2018-04-01T09:58:39.952Z,5.80
2018-04-01T10:01:14.435Z,6.00
2018-04-01T10:03:45.245Z,6.30
2018-04-01T10:06:15.849Z,6.30
2018-04-01T10:08:48.058Z,6.60
2018-04-01T10:11:18.781Z,6.50
2018-04-01T10:13:50.365Z,6.50
2018-04-01T10:16:21.032Z,6.50
2018-04-01T10:18:51.454Z,6.60
2018-04-01T10:21:22.007Z,6.60
2018-04-01T10:23:52.473Z,6.60
2018-04-01T10:26:24.043Z,6.70
2018-04-01T10:28:55.336Z,6.90
2018-04-01T10:31:25.962Z,6.90
2018-04-01T10:33:56.367Z,7.00
2018-04-01T10:36:27.988Z,6.90
2018-04-01T10:38:58.701Z,6.90
2018-04-01T10:41:29.367Z,6.90
2018-04-01T10:44:04.917Z,7.00
2018-04-01T10:46:35.890Z,7.20
2018-04-01T10:49:07.153Z,7.20
2018-04-01T10:51:40.028Z,7.20
2018-04-01T10:54:10.313Z,7.40
2018-04-01T10:56:39.237Z,7.40
2018-04-01T10:59:08.419Z,7.40
2018-04-01T11:01:37.162Z,7.60
2018-04-01T11:04:05.920Z,8.20
2018-04-01T11:06:43.471Z,8.60
2018-04-01T11:09:21.843Z,8.90
2018-04-01T11:11:51.611Z,8.90
2018-04-01T11:14:20.575Z,9.40
2018-04-01T11:16:51.056Z,9.30
2018-04-01T11:19:19.645Z,9.20
2018-04-01T11:21:49.961Z,9.20
2018-04-01T11:24:18.744Z,9.20
2018-04-01T11:26:47.774Z,9.10
2018-04-01T11:29:18.277Z,9.00
2018-04-01T11:31:46.923Z,9.00
2018-04-01T11:34:15.542Z,8.90
2018-04-01T11:36:44.476Z,8.80
2018-04-01T11:39:13.071Z,8.70
2018-04-01T11:41:41.683Z,8.70
2018-04-01T11:44:10.256Z,9.00
2018-04-01T11:46:38.999Z,9.50
2018-04-01T11:49:08.894Z,9.80
2018-04-01T11:51:38.368Z,9.70
2018-04-01T11:54:07.984Z,9.80
2018-04-01T11:56:36.956Z,9.80
2018-04-01T11:59:05.982Z,9.80
2018-04-01T12:01:35.335Z,9.60
2018-04-01T12:04:04.900Z,9.80
2018-04-01T12:06:36.288Z,9.90
2018-04-01T12:09:05.444Z,9.90
2018-04-01T12:11:34.146Z,9.90
2018-04-01T12:14:03.176Z,9.60
2018-04-01T12:16:32.075Z,9.60
2018-04-01T12:19:01.040Z,9.70
2018-04-01T12:21:29.963Z,9.80
2018-04-01T12:23:59.010Z,9.80
2018-04-01T12:26:27.723Z,10.00
2018-04-01T12:28:56.325Z,10.10
2018-04-01T12:31:25.058Z,10.00
2018-04-01T12:33:53.697Z,9.80
2018-04-01T12:36:22.455Z,9.50
2018-04-01T12:38:51.476Z,9.40
2018-04-01T12:41:20.330Z,9.30
2018-04-01T12:43:49.164Z,9.10
2018-04-01T12:46:19.505Z,8.70
2018-04-01T12:48:48.202Z,8.70
2018-04-01T12:51:16.823Z,8.50
2018-04-01T12:53:45.471Z,8.40
2018-04-01T12:56:14.194Z,8.40
2018-04-01T12:58:43.037Z,8.30
2018-04-01T13:01:12.082Z,8.40
2018-04-01T13:03:40.828Z,8.40
2018-04-01T13:06:10.568Z,8.20
2018-04-01T13:08:39.623Z,8.20
2018-04-01T13:11:08.389Z,8.20
2018-04-01T13:13:36.992Z,8.20
2018-04-01T13:16:05.893Z,8.20
2018-04-01T13:18:35.758Z,8.20
2018-04-01T13:21:04.890Z,8.20
2018-04-01T13:23:34.097Z,8.30
2018-04-01T13:26:03.462Z,8.40
2018-04-01T13:28:32.803Z,8.30
2018-04-01T13:31:01.587Z,8.30
2018-04-01T13:33:30.496Z,8.20
2018-04-01T13:35:59.149Z,8.20
2018-04-01T13:38:28.047Z,8.10
2018-04-01T13:40:56.634Z,8.10
2018-04-01T13:43:26.002Z,8.20
2018-04-01T13:45:54.681Z,8.10
2018-04-01T13:48:23.727Z,8.50
2018-04-01T13:50:52.349Z,8.90
2018-04-01T13:53:21.002Z,8.90
2018-04-01T13:55:49.506Z,9.00
2018-04-01T13:58:18.240Z,8.90
2018-04-01T14:00:46.804Z,9.20
2018-04-01T14:03:15.605Z,9.40
2018-04-01T14:05:44.206Z,9.60
2018-04-01T14:08:13.587Z,9.80
2018-04-01T14:10:42.232Z,9.80
2018-04-01T14:13:11.545Z,9.50
2018-04-01T14:15:40.657Z,9.10
2018-04-01T14:18:09.417Z,9.10
2018-04-01T14:20:38.360Z,9.20
2018-04-01T14:23:07.638Z,9.40
2018-04-01T14:25:37.370Z,9.60
2018-04-01T14:28:05.956Z,9.60
2018-04-01T14:30:34.572Z,9.70
2018-04-01T14:33:04.418Z,9.10
2018-04-01T14:35:33.900Z,9.30
2018-04-01T14:38:02.796Z,9.30
2018-04-01T14:40:33.594Z,9.60
2018-04-01T14:43:02.916Z,9.60
2018-04-01T14:45:31.650Z,9.90
2018-04-01T14:48:00.228Z,10.00
2018-04-01T14:50:28.832Z,10.00
2018-04-01T14:52:57.742Z,9.80
2018-04-01T14:55:27.225Z,9.80
2018-04-01T14:57:56.820Z,9.70
2018-04-01T15:00:25.369Z,9.70
2018-04-01T15:02:54.299Z,9.30
2018-04-01T15:05:22.946Z,8.90
2018-04-01T15:07:51.548Z,9.10
2018-04-01T15:10:20.581Z,9.20
2018-04-01T15:12:49.151Z,9.10
2018-04-01T15:15:17.764Z,9.10
2018-04-01T15:17:46.712Z,8.90
2018-04-01T15:23:04.043Z,8.80
2018-04-01T15:25:43.730Z,8.80
2018-04-01T15:28:13.365Z,8.60
2018-04-01T15:30:42.055Z,8.70
2018-04-01T15:33:11.204Z,8.60
2018-04-01T15:35:39.928Z,8.70
2018-04-01T15:38:08.742Z,9.00
2018-04-01T15:40:37.806Z,9.10
2018-04-01T15:43:07.360Z,8.90
2018-04-01T15:45:37.038Z,8.90
2018-04-01T15:48:05.809Z,8.90
2018-04-01T15:50:34.524Z,8.80
2018-04-01T15:53:03.415Z,8.70
2018-04-01T15:55:33.612Z,8.40
2018-04-01T15:58:02.199Z,8.40
2018-04-01T16:00:31.425Z,8.30
2018-04-01T16:03:00.563Z,8.30
2018-04-01T16:05:29.404Z,8.20
2018-04-01T16:07:58.765Z,8.00
2018-04-01T16:10:27.596Z,7.90
2018-04-01T16:12:56.436Z,7.80
2018-04-01T16:15:25.049Z,7.80
2018-04-01T16:17:53.811Z,7.80
2018-04-01T16:20:23.568Z,7.80
2018-04-01T16:22:52.424Z,7.70
2018-04-01T16:25:21.431Z,7.70
2018-04-01T16:27:50.231Z,7.70
2018-04-01T16:30:19.622Z,7.70
2018-04-01T16:32:48.714Z,7.70
2018-04-01T16:35:17.656Z,7.70
2018-04-01T16:37:46.246Z,7.70
2018-04-01T16:40:15.196Z,7.70
2018-04-01T16:42:44.082Z,7.70
2018-04-01T16:45:13.010Z,7.60
2018-04-01T16:47:42.571Z,7.50
2018-04-01T16:50:11.311Z,7.50
2018-04-01T16:52:40.154Z,7.50
2018-04-01T16:55:09.177Z,7.50
2018-04-01T16:57:38.030Z,7.50
2018-04-01T17:00:06.927Z,7.50
2018-04-01T17:02:36.741Z,7.50
2018-04-01T17:05:06.595Z,7.50
2018-04-01T17:07:35.414Z,7.40
2018-04-01T17:10:03.943Z,7.40
2018-04-01T17:12:32.904Z,7.40
2018-04-01T17:15:01.738Z,7.40
2018-04-01T17:17:30.487Z,7.40
2018-04-01T17:19:59.119Z,7.40
2018-04-01T17:22:28.043Z,7.40
2018-04-01T17:24:56.686Z,7.40
2018-04-01T17:27:26.088Z,7.40
2018-04-01T17:29:55.032Z,7.40
2018-04-01T17:32:23.678Z,7.40
2018-04-01T17:34:52.403Z,7.30
2018-04-01T17:37:21.312Z,7.30
2018-04-01T17:39:50.106Z,7.20
2018-04-01T17:42:19.689Z,7.10
2018-04-01T17:44:48.320Z,7.10
2018-04-01T17:47:18.060Z,7.10
2018-04-01T17:49:47.217Z,7.10
2018-04-01T17:52:15.932Z,7.10
2018-04-01T17:54:44.560Z,7.10
2018-04-01T17:57:14.427Z,7.00
2018-04-01T17:59:43.444Z,7.00
2018-04-01T18:02:12.958Z,7.00
2018-04-01T18:04:42.324Z,6.90
2018-04-01T18:07:11.065Z,6.90
2018-04-01T18:09:39.871Z,6.90
2018-04-01T18:12:08.494Z,6.90
2018-04-01T18:14:37.428Z,6.90
2018-04-01T18:17:06.080Z,6.90
2018-04-01T18:19:34.760Z,6.90
2018-04-01T18:22:03.831Z,6.90
2018-04-01T18:24:33.192Z,6.90
2018-04-01T18:27:02.545Z,6.80
2018-04-01T18:29:31.189Z,6.90
2018-04-01T18:31:59.908Z,6.80
2018-04-01T18:34:29.790Z,6.80
2018-04-01T18:36:58.525Z,6.90
2018-04-01T18:39:27.160Z,6.90
2018-04-01T18:41:56.806Z,6.80
2018-04-01T18:44:26.253Z,6.70
2018-04-01T18:46:55.005Z,6.70
2018-04-01T18:49:23.609Z,6.70
2018-04-01T18:51:52.348Z,6.70
2018-04-01T18:54:21.266Z,6.60
2018-04-01T18:56:50.193Z,6.70
2018-04-01T18:59:19.971Z,6.60
2018-04-01T19:01:49.292Z,6.60
2018-04-01T19:04:18.396Z,6.70
2018-04-01T19:06:47.619Z,6.70
2018-04-01T19:09:16.234Z,6.70
2018-04-01T19:11:44.983Z,6.60
2018-04-01T19:14:13.821Z,6.60
2018-04-01T19:16:53.940Z,6.50
2018-04-01T19:19:25.067Z,6.40
2018-04-01T19:21:55.727Z,6.40
2018-04-01T19:24:26.962Z,6.30
2018-04-01T19:26:59.729Z,6.30
2018-04-01T19:29:30.269Z,6.30
2018-04-01T19:32:01.408Z,6.30
2018-04-01T19:34:32.581Z,6.30
2018-04-01T19:37:03.162Z,6.30
2018-04-01T19:39:33.740Z,6.20
2018-04-01T19:42:04.512Z,6.10
2018-04-01T19:44:35.280Z,6.20
2018-04-01T19:47:05.989Z,6.10
2018-04-01T19:49:37.130Z,6.00
2018-04-01T19:52:07.682Z,6.00
2018-04-01T19:54:38.207Z,5.90
2018-04-01T19:57:08.754Z,5.80
2018-04-01T19:59:39.547Z,5.80
2018-04-01T20:02:10.098Z,5.80
2018-04-01T20:04:40.642Z,5.70
2018-04-01T20:07:11.846Z,5.70
2018-04-01T20:09:42.964Z,5.70
2018-04-01T20:12:13.675Z,5.60
2018-04-01T20:14:44.918Z,5.70
2018-04-01T20:17:16.432Z,5.70
2018-04-01T20:19:46.927Z,5.60
2018-04-01T20:22:18.389Z,5.60
2018-04-01T20:24:49.402Z,5.60
2018-04-01T20:27:20.240Z,5.60
2018-04-01T20:29:51.145Z,5.70
2018-04-01T20:32:21.882Z,5.70
2018-04-01T20:34:54.679Z,5.60
2018-04-01T20:37:25.654Z,5.70
2018-04-01T20:39:57.485Z,5.70
2018-04-01T20:42:28.190Z,5.70
2018-04-01T20:44:59.639Z,5.70
2018-04-01T20:47:30.486Z,5.70
2018-04-01T20:50:01.189Z,5.70
2018-04-01T20:52:31.868Z,5.70
2018-04-01T20:55:02.368Z,5.70
2018-04-01T20:57:32.818Z,5.70
2018-04-01T21:00:03.553Z,5.60
2018-04-01T21:02:34.303Z,5.70
2018-04-01T21:05:05.303Z,5.70
2018-04-01T21:07:36.490Z,5.70
2018-04-01T21:10:07.383Z,5.70
2018-04-01T21:12:37.982Z,5.70
2018-04-01T21:15:08.370Z,5.70
2018-04-01T21:17:39.119Z,5.70
2018-04-01T21:20:09.629Z,5.60
2018-04-01T21:22:40.664Z,5.70
2018-04-01T21:25:12.423Z,5.60
2018-04-01T21:27:43.540Z,5.60
2018-04-01T21:30:14.215Z,5.60
2018-04-01T21:32:45.660Z,5.60
2018-04-01T21:35:16.186Z,5.50
2018-04-01T21:37:46.699Z,5.50
2018-04-01T21:40:17.107Z,5.50
2018-04-01T21:42:48.413Z,5.50
2018-04-01T21:45:18.942Z,5.50
2018-04-01T21:47:50.163Z,5.50
2018-04-01T21:50:22.351Z,5.50
2018-04-01T21:52:52.751Z,5.50
2018-04-01T21:55:23.154Z,5.50
2018-04-01T21:57:53.631Z,5.50
2018-04-01T22:00:24.914Z,5.40
2018-04-01T22:02:55.438Z,5.40
2018-04-01T22:05:26.496Z,5.40
2018-04-01T22:07:58.301Z,5.40
2018-04-01T22:10:29.920Z,5.30
2018-04-01T22:13:00.844Z,5.30
2018-04-01T22:15:32.144Z,5.20
2018-04-01T22:18:03.267Z,5.20
2018-04-01T22:20:34.414Z,5.20
2018-04-01T22:23:13.652Z,5.10
2018-04-01T22:25:44.240Z,5.10
2018-04-01T22:28:15.841Z,5.10
2018-04-01T22:30:46.814Z,5.10
2018-04-01T22:33:17.446Z,5.10
2018-04-01T22:35:48.388Z,5.20
2018-04-01T22:38:19.629Z,5.20
2018-04-01T22:40:50.271Z,5.20
2018-04-01T22:43:21.003Z,5.20
2018-04-01T22:45:51.553Z,5.20
2018-04-01T22:48:22.181Z,5.20
2018-04-01T22:50:53.378Z,5.10
2018-04-01T22:53:24.822Z,5.20
2018-04-01T22:55:55.239Z,5.10
2018-04-01T22:58:26.061Z,5.20
2018-04-01T23:00:57.260Z,5.20
2018-04-01T23:03:28.537Z,5.20
2018-04-01T23:06:12.580Z,5.20
2018-04-01T23:08:43.597Z,5.30
2018-04-01T23:11:14.174Z,5.30
2018-04-01T23:13:45.199Z,5.30
2018-04-01T23:16:16.144Z,5.30
2018-04-01T23:18:47.288Z,5.30
2018-04-01T23:21:18.141Z,5.30
2018-04-01T23:23:50.121Z,5.30
2018-04-01T23:26:22.192Z,5.20
2018-04-01T23:28:52.772Z,5.20
2018-04-01T23:31:23.683Z,5.20
2018-04-01T23:33:54.518Z,5.20
2018-04-01T23:36:25.382Z,5.20
2018-04-01T23:38:56.508Z,5.10
2018-04-01T23:41:27.147Z,5.20
2018-04-01T23:43:58.197Z,5.10
2018-04-01T23:46:30.263Z,5.10
2018-04-01T23:49:01.214Z,5.10
2018-04-01T23:51:31.956Z,5.10
2018-04-01T23:54:02.617Z,5.10
2018-04-01T23:56:34.870Z,5.10
2018-04-01T23:59:05.830Z,5.10
